sensor_id;sensor_type;location;lat;lon;timestamp;P1;durP1;ratioP1;P2;durP2;ratioP2
78079;SDS011;67298;51.322;5.958;2023-06-19T00:03:44;7.7;;;1.1;;
78079;SDS011;67298;51.322;5.958;2023-06-19T00:08:23;3.5;;;0.4;;
78079;SDS011;67298;51.322;5.958;2023-06-19T00:13:11;1.4;;;1.0;;
78079;SDS011;67298;51.322;5.958;2023-06-19T00:17:50;0.8;;;0.7;;
78079;SDS011;67298;51.322;5.958;2023-06-19T00:22:29;2.0;;;1.1;;
78079;SDS011;67298;51.322;5.958;2023-06-19T00:27:09;6.3;;;1.5;;
78079;SDS011;67298;51.322;5.958;2023-06-19T00:31:48;0.9;;;0.9;;
78079;SDS011;67298;51.322;5.958;2023-06-19T00:36:27;1.5;;;1.0;;
78079;SDS011;67298;51.322;5.958;2023-06-19T00:41:07;2.4;;;0.9;;
78079;SDS011;67298;51.322;5.958;2023-06-19T00:45:46;3.5;;;1.0;;
78079;SDS011;67298;51.322;5.958;2023-06-19T00:50:26;1.5;;;1.0;;
78079;SDS011;67298;51.322;5.958;2023-06-19T00:55:05;5.9;;;1.0;;
78079;SDS011;67298;51.322;5.958;2023-06-19T00:59:44;2.4;;;0.9;;
78079;SDS011;67298;51.322;5.958;2023-06-19T01:04:24;1.2;;;0.9;;
78079;SDS011;67298;51.322;5.958;2023-06-19T01:09:03;0.5;;;0.3;;
78079;SDS011;67298;51.322;5.958;2023-06-19T01:13:42;6.7;;;1.3;;
78079;SDS011;67298;51.322;5.958;2023-06-19T01:18:22;4.2;;;1.2;;
78079;SDS011;67298;51.322;5.958;2023-06-19T01:23:01;4.2;;;1.3;;
78079;SDS011;67298;51.322;5.958;2023-06-19T01:27:41;4.5;;;1.2;;
78079;SDS011;67298;51.322;5.958;2023-06-19T01:32:20;0.7;;;0.7;;
78079;SDS011;67298;51.322;5.958;2023-06-19T01:36:59;5.0;;;1.2;;
78079;SDS011;67298;51.322;5.958;2023-06-19T01:41:39;5.8;;;1.1;;
78079;SDS011;67298;51.322;5.958;2023-06-19T01:46:18;5.3;;;1.5;;
78079;SDS011;67298;51.322;5.958;2023-06-19T01:50:58;2.9;;;1.1;;
78079;SDS011;67298;51.322;5.958;2023-06-19T01:55:37;3.0;;;1.0;;
78079;SDS011;67298;51.322;5.958;2023-06-19T02:00:16;2.1;;;1.2;;
78079;SDS011;67298;51.322;5.958;2023-06-19T02:04:56;7.8;;;1.8;;
78079;SDS011;67298;51.322;5.958;2023-06-19T02:09:35;1.1;;;1.0;;
78079;SDS011;67298;51.322;5.958;2023-06-19T02:14:14;2.3;;;1.1;;
78079;SDS011;67298;51.322;5.958;2023-06-19T02:18:54;2.0;;;1.3;;
78079;SDS011;67298;51.322;5.958;2023-06-19T02:23:33;2.7;;;1.3;;
78079;SDS011;67298;51.322;5.958;2023-06-19T02:28:12;2.0;;;1.0;;
78079;SDS011;67298;51.322;5.958;2023-06-19T02:32:52;0.7;;;0.7;;
78079;SDS011;67298;51.322;5.958;2023-06-19T02:37:31;1.8;;;1.3;;
78079;SDS011;67298;51.322;5.958;2023-06-19T02:42:11;6.2;;;1.2;;
78079;SDS011;67298;51.322;5.958;2023-06-19T02:46:50;0.3;;;0.3;;
78079;SDS011;67298;51.322;5.958;2023-06-19T02:51:30;4.1;;;1.5;;
78079;SDS011;67298;51.322;5.958;2023-06-19T02:56:10;2.4;;;1.4;;
78079;SDS011;67298;51.322;5.958;2023-06-19T03:00:50;3.3;;;1.7;;
78079;SDS011;67298;51.322;5.958;2023-06-19T03:05:29;2.5;;;1.8;;
78079;SDS011;67298;51.322;5.958;2023-06-19T03:10:08;1.5;;;1.4;;
78079;SDS011;67298;51.322;5.958;2023-06-19T03:14:49;3.7;;;1.7;;
78079;SDS011;67298;51.322;5.958;2023-06-19T03:19:30;2.2;;;1.7;;
78079;SDS011;67298;51.322;5.958;2023-06-19T03:24:10;2.6;;;1.3;;
78079;SDS011;67298;51.322;5.958;2023-06-19T03:28:49;4.8;;;1.4;;
78079;SDS011;67298;51.322;5.958;2023-06-19T03:33:29;2.3;;;1.3;;
78079;SDS011;67298;51.322;5.958;2023-06-19T03:38:10;4.3;;;2.0;;
78079;SDS011;67298;51.322;5.958;2023-06-19T03:42:50;3.0;;;1.6;;
78079;SDS011;67298;51.322;5.958;2023-06-19T03:47:30;1.5;;;1.4;;
78079;SDS011;67298;51.322;5.958;2023-06-19T03:52:10;4.6;;;2.1;;
78079;SDS011;67298;51.322;5.958;2023-06-19T03:56:49;7.4;;;2.2;;
78079;SDS011;67298;51.322;5.958;2023-06-19T04:01:30;4.2;;;2.1;;
78079;SDS011;67298;51.322;5.958;2023-06-19T04:06:09;6.8;;;2.1;;
78079;SDS011;67298;51.322;5.958;2023-06-19T04:10:48;2.4;;;1.5;;
78079;SDS011;67298;51.322;5.958;2023-06-19T04:15:28;4.9;;;2.0;;
78079;SDS011;67298;51.322;5.958;2023-06-19T04:20:07;4.2;;;1.7;;
78079;SDS011;67298;51.322;5.958;2023-06-19T04:24:46;4.4;;;2.1;;
78079;SDS011;67298;51.322;5.958;2023-06-19T04:29:26;3.7;;;1.8;;
78079;SDS011;67298;51.322;5.958;2023-06-19T04:34:05;2.1;;;1.9;;
78079;SDS011;67298;51.322;5.958;2023-06-19T04:38:44;2.8;;;2.2;;
78079;SDS011;67298;51.322;5.958;2023-06-19T04:43:24;5.3;;;2.2;;
78079;SDS011;67298;51.322;5.958;2023-06-19T04:48:03;1.8;;;1.7;;
78079;SDS011;67298;51.322;5.958;2023-06-19T04:52:43;2.3;;;1.8;;
78079;SDS011;67298;51.322;5.958;2023-06-19T04:57:22;5.2;;;2.0;;
78079;SDS011;67298;51.322;5.958;2023-06-19T05:02:01;4.8;;;2.4;;
78079;SDS011;67298;51.322;5.958;2023-06-19T05:06:41;2.0;;;1.8;;
78079;SDS011;67298;51.322;5.958;2023-06-19T05:11:20;3.7;;;1.6;;
78079;SDS011;67298;51.322;5.958;2023-06-19T05:15:59;3.8;;;2.1;;
78079;SDS011;67298;51.322;5.958;2023-06-19T05:20:39;3.9;;;1.7;;
78079;SDS011;67298;51.322;5.958;2023-06-19T05:25:18;0.5;;;0.5;;
78079;SDS011;67298;51.322;5.958;2023-06-19T05:29:57;4.1;;;2.2;;
78079;SDS011;67298;51.322;5.958;2023-06-19T05:34:37;2.6;;;2.1;;
78079;SDS011;67298;51.322;5.958;2023-06-19T05:39:17;5.2;;;2.4;;
78079;SDS011;67298;51.322;5.958;2023-06-19T05:43:56;3.0;;;2.2;;
78079;SDS011;67298;51.322;5.958;2023-06-19T05:48:36;6.4;;;2.2;;
78079;SDS011;67298;51.322;5.958;2023-06-19T05:53:15;3.8;;;2.3;;
78079;SDS011;67298;51.322;5.958;2023-06-19T05:57:55;4.2;;;2.3;;
78079;SDS011;67298;51.322;5.958;2023-06-19T06:02:34;4.1;;;2.4;;
78079;SDS011;67298;51.322;5.958;2023-06-19T06:07:13;2.9;;;2.2;;
78079;SDS011;67298;51.322;5.958;2023-06-19T06:11:53;2.3;;;2.1;;
78079;SDS011;67298;51.322;5.958;2023-06-19T06:16:32;3.5;;;2.0;;
78079;SDS011;67298;51.322;5.958;2023-06-19T06:21:12;4.3;;;1.9;;
78079;SDS011;67298;51.322;5.958;2023-06-19T06:25:51;1.9;;;1.7;;
78079;SDS011;67298;51.322;5.958;2023-06-19T06:30:30;3.4;;;2.7;;
78079;SDS011;67298;51.322;5.958;2023-06-19T06:35:10;5.0;;;2.3;;
78079;SDS011;67298;51.322;5.958;2023-06-19T06:39:49;5.6;;;2.3;;
78079;SDS011;67298;51.322;5.958;2023-06-19T06:44:28;4.3;;;2.2;;
78079;SDS011;67298;51.322;5.958;2023-06-19T06:49:08;3.3;;;2.5;;
78079;SDS011;67298;51.322;5.958;2023-06-19T06:53:47;2.5;;;2.3;;
78079;SDS011;67298;51.322;5.958;2023-06-19T06:58:26;3.7;;;2.2;;
78079;SDS011;67298;51.322;5.958;2023-06-19T07:03:06;3.3;;;2.5;;
78079;SDS011;67298;51.322;5.958;2023-06-19T07:07:45;2.5;;;2.3;;
78079;SDS011;67298;51.322;5.958;2023-06-19T07:12:25;3.1;;;2.5;;
78079;SDS011;67298;51.322;5.958;2023-06-19T07:17:04;4.4;;;2.4;;
78079;SDS011;67298;51.322;5.958;2023-06-19T07:21:43;8.3;;;2.3;;
78079;SDS011;67298;51.322;5.958;2023-06-19T07:26:23;1.8;;;1.7;;
78079;SDS011;67298;51.322;5.958;2023-06-19T07:31:02;2.8;;;2.3;;
78079;SDS011;67298;51.322;5.958;2023-06-19T07:35:42;3.5;;;2.2;;
78079;SDS011;67298;51.322;5.958;2023-06-19T07:40:21;4.8;;;2.5;;
78079;SDS011;67298;51.322;5.958;2023-06-19T07:45:00;3.8;;;2.4;;
78079;SDS011;67298;51.322;5.958;2023-06-19T07:49:40;1.9;;;1.8;;
78079;SDS011;67298;51.322;5.958;2023-06-19T07:54:20;3.0;;;2.2;;
78079;SDS011;67298;51.322;5.958;2023-06-19T07:58:59;4.3;;;1.9;;
78079;SDS011;67298;51.322;5.958;2023-06-19T08:03:38;0.7;;;0.7;;
78079;SDS011;67298;51.322;5.958;2023-06-19T08:08:18;4.6;;;2.6;;
78079;SDS011;67298;51.322;5.958;2023-06-19T08:12:57;2.9;;;2.7;;
78079;SDS011;67298;51.322;5.958;2023-06-19T08:17:36;4.4;;;2.5;;
78079;SDS011;67298;51.322;5.958;2023-06-19T08:22:16;4.9;;;2.5;;
78079;SDS011;67298;51.322;5.958;2023-06-19T08:26:55;3.6;;;1.4;;
78079;SDS011;67298;51.322;5.958;2023-06-19T08:31:35;5.3;;;2.6;;
78079;SDS011;67298;51.322;5.958;2023-06-19T08:36:15;5.3;;;1.9;;
78079;SDS011;67298;51.322;5.958;2023-06-19T08:40:54;3.8;;;2.4;;
78079;SDS011;67298;51.322;5.958;2023-06-19T08:45:33;4.8;;;2.5;;
78079;SDS011;67298;51.322;5.958;2023-06-19T08:50:13;3.0;;;2.0;;
78079;SDS011;67298;51.322;5.958;2023-06-19T08:54:52;4.8;;;2.4;;
78079;SDS011;67298;51.322;5.958;2023-06-19T08:59:32;6.9;;;2.7;;
78079;SDS011;67298;51.322;5.958;2023-06-19T09:04:11;1.4;;;1.2;;
78079;SDS011;67298;51.322;5.958;2023-06-19T09:08:50;2.8;;;2.2;;
78079;SDS011;67298;51.322;5.958;2023-06-19T09:13:30;2.6;;;2.4;;
78079;SDS011;67298;51.322;5.958;2023-06-19T09:18:09;3.2;;;2.4;;
78079;SDS011;67298;51.322;5.958;2023-06-19T09:22:48;3.2;;;2.4;;
78079;SDS011;67298;51.322;5.958;2023-06-19T09:27:28;2.6;;;2.0;;
78079;SDS011;67298;51.322;5.958;2023-06-19T09:32:07;5.8;;;2.4;;
78079;SDS011;67298;51.322;5.958;2023-06-19T09:36:47;4.2;;;2.1;;
78079;SDS011;67298;51.322;5.958;2023-06-19T09:41:26;4.5;;;2.4;;
78079;SDS011;67298;51.322;5.958;2023-06-19T09:46:06;3.7;;;2.5;;
78079;SDS011;67298;51.322;5.958;2023-06-19T09:50:45;3.6;;;2.3;;
78079;SDS011;67298;51.322;5.958;2023-06-19T09:55:25;4.2;;;2.7;;
78079;SDS011;67298;51.322;5.958;2023-06-19T10:00:05;4.3;;;2.2;;
78079;SDS011;67298;51.322;5.958;2023-06-19T10:04:45;6.0;;;2.6;;
78079;SDS011;67298;51.322;5.958;2023-06-19T10:09:24;4.3;;;2.5;;
78079;SDS011;67298;51.322;5.958;2023-06-19T10:14:03;5.6;;;2.4;;
78079;SDS011;67298;51.322;5.958;2023-06-19T10:18:43;4.7;;;2.6;;
78079;SDS011;67298;51.322;5.958;2023-06-19T10:23:22;2.4;;;2.2;;
78079;SDS011;67298;51.322;5.958;2023-06-19T10:28:02;3.0;;;2.8;;
78079;SDS011;67298;51.322;5.958;2023-06-19T10:32:41;3.4;;;2.4;;
78079;SDS011;67298;51.322;5.958;2023-06-19T10:37:20;4.1;;;2.3;;
78079;SDS011;67298;51.322;5.958;2023-06-19T10:42:00;2.2;;;2.0;;
78079;SDS011;67298;51.322;5.958;2023-06-19T10:46:40;4.0;;;2.5;;
78079;SDS011;67298;51.322;5.958;2023-06-19T10:51:19;3.6;;;2.2;;
78079;SDS011;67298;51.322;5.958;2023-06-19T10:55:59;4.1;;;2.4;;
78079;SDS011;67298;51.322;5.958;2023-06-19T11:00:39;2.4;;;2.2;;
78079;SDS011;67298;51.322;5.958;2023-06-19T11:05:20;1.8;;;1.7;;
78079;SDS011;67298;51.322;5.958;2023-06-19T11:09:59;4.8;;;2.5;;
78079;SDS011;67298;51.322;5.958;2023-06-19T11:14:47;6.0;;;2.5;;
78079;SDS011;67298;51.322;5.958;2023-06-19T11:19:27;5.1;;;2.9;;
78079;SDS011;67298;51.322;5.958;2023-06-19T11:24:07;3.3;;;2.4;;
78079;SDS011;67298;51.322;5.958;2023-06-19T11:28:46;3.6;;;2.7;;
78079;SDS011;67298;51.322;5.958;2023-06-19T11:33:25;3.1;;;2.7;;
78079;SDS011;67298;51.322;5.958;2023-06-19T11:38:05;5.3;;;2.3;;
78079;SDS011;67298;51.322;5.958;2023-06-19T11:42:45;1.6;;;1.5;;
78079;SDS011;67298;51.322;5.958;2023-06-19T11:47:27;4.4;;;2.6;;
78079;SDS011;67298;51.322;5.958;2023-06-19T11:52:08;2.4;;;2.1;;
78079;SDS011;67298;51.322;5.958;2023-06-19T11:56:48;3.3;;;2.8;;
78079;SDS011;67298;51.322;5.958;2023-06-19T12:01:28;4.1;;;2.3;;
78079;SDS011;67298;51.322;5.958;2023-06-19T12:06:08;2.4;;;2.2;;
78079;SDS011;67298;51.322;5.958;2023-06-19T12:10:48;3.4;;;2.6;;
78079;SDS011;67298;51.322;5.958;2023-06-19T12:15:28;6.2;;;2.4;;
78079;SDS011;67298;51.322;5.958;2023-06-19T12:20:13;6.7;;;3.1;;
78079;SDS011;67298;51.322;5.958;2023-06-19T12:24:54;6.7;;;2.8;;
78079;SDS011;67298;51.322;5.958;2023-06-19T12:29:34;4.9;;;2.4;;
78079;SDS011;67298;51.322;5.958;2023-06-19T12:34:13;3.9;;;2.6;;
78079;SDS011;67298;51.322;5.958;2023-06-19T12:38:53;4.0;;;2.8;;
78079;SDS011;67298;51.322;5.958;2023-06-19T12:43:32;7.8;;;2.4;;
78079;SDS011;67298;51.322;5.958;2023-06-19T12:48:11;5.3;;;2.5;;
78079;SDS011;67298;51.322;5.958;2023-06-19T12:52:52;5.3;;;3.0;;
78079;SDS011;67298;51.322;5.958;2023-06-19T12:57:31;5.6;;;2.7;;
78079;SDS011;67298;51.322;5.958;2023-06-19T13:02:10;6.1;;;3.1;;
78079;SDS011;67298;51.322;5.958;2023-06-19T13:06:50;2.0;;;1.9;;
78079;SDS011;67298;51.322;5.958;2023-06-19T13:11:30;4.0;;;2.3;;
78079;SDS011;67298;51.322;5.958;2023-06-19T13:16:10;4.8;;;2.5;;
78079;SDS011;67298;51.322;5.958;2023-06-19T13:20:50;0.7;;;0.7;;
78079;SDS011;67298;51.322;5.958;2023-06-19T13:25:29;3.9;;;2.2;;
78079;SDS011;67298;51.322;5.958;2023-06-19T13:30:09;4.9;;;2.9;;
78079;SDS011;67298;51.322;5.958;2023-06-19T13:34:48;4.1;;;3.1;;
78079;SDS011;67298;51.322;5.958;2023-06-19T13:39:28;3.0;;;2.7;;
78079;SDS011;67298;51.322;5.958;2023-06-19T13:44:07;2.7;;;2.5;;
78079;SDS011;67298;51.322;5.958;2023-06-19T13:48:47;3.0;;;2.5;;
78079;SDS011;67298;51.322;5.958;2023-06-19T13:53:27;3.9;;;2.3;;
78079;SDS011;67298;51.322;5.958;2023-06-19T13:58:06;4.0;;;2.4;;
78079;SDS011;67298;51.322;5.958;2023-06-19T14:02:46;3.3;;;2.7;;
78079;SDS011;67298;51.322;5.958;2023-06-19T14:07:25;3.1;;;2.2;;
78079;SDS011;67298;51.322;5.958;2023-06-19T14:12:04;3.1;;;2.5;;
78079;SDS011;67298;51.322;5.958;2023-06-19T14:16:44;4.3;;;2.6;;
78079;SDS011;67298;51.322;5.958;2023-06-19T14:21:23;4.9;;;2.6;;
78079;SDS011;67298;51.322;5.958;2023-06-19T14:26:02;3.5;;;2.4;;
78079;SDS011;67298;51.322;5.958;2023-06-19T14:30:42;2.5;;;2.3;;
78079;SDS011;67298;51.322;5.958;2023-06-19T14:35:21;5.4;;;2.7;;
78079;SDS011;67298;51.322;5.958;2023-06-19T14:40:00;3.5;;;3.2;;
78079;SDS011;67298;51.322;5.958;2023-06-19T14:44:41;2.5;;;2.3;;
78079;SDS011;67298;51.322;5.958;2023-06-19T14:49:20;4.1;;;2.9;;
78079;SDS011;67298;51.322;5.958;2023-06-19T14:53:59;4.1;;;2.6;;
78079;SDS011;67298;51.322;5.958;2023-06-19T14:58:39;4.3;;;2.9;;
78079;SDS011;67298;51.322;5.958;2023-06-19T15:03:18;4.5;;;2.7;;
78079;SDS011;67298;51.322;5.958;2023-06-19T15:07:57;3.7;;;3.4;;
78079;SDS011;67298;51.322;5.958;2023-06-19T15:12:37;3.7;;;2.8;;
78079;SDS011;67298;51.322;5.958;2023-06-19T15:17:16;2.8;;;2.5;;
78079;SDS011;67298;51.322;5.958;2023-06-19T15:21:56;2.8;;;2.2;;
78079;SDS011;67298;51.322;5.958;2023-06-19T15:26:36;3.8;;;2.9;;
78079;SDS011;67298;51.322;5.958;2023-06-19T15:31:15;5.4;;;2.8;;
78079;SDS011;67298;51.322;5.958;2023-06-19T15:35:54;5.5;;;2.9;;
78079;SDS011;67298;51.322;5.958;2023-06-19T15:40:34;3.2;;;2.9;;
78079;SDS011;67298;51.322;5.958;2023-06-19T15:45:13;7.1;;;2.8;;
78079;SDS011;67298;51.322;5.958;2023-06-19T15:49:53;3.9;;;2.7;;
78079;SDS011;67298;51.322;5.958;2023-06-19T15:54:32;3.2;;;2.4;;
78079;SDS011;67298;51.322;5.958;2023-06-19T15:59:11;1.7;;;1.6;;
78079;SDS011;67298;51.322;5.958;2023-06-19T16:03:51;3.7;;;2.7;;
78079;SDS011;67298;51.322;5.958;2023-06-19T16:08:30;2.4;;;2.2;;
78079;SDS011;67298;51.322;5.958;2023-06-19T16:13:09;2.8;;;2.5;;
78079;SDS011;67298;51.322;5.958;2023-06-19T16:17:49;3.5;;;2.5;;
78079;SDS011;67298;51.322;5.958;2023-06-19T16:22:28;3.6;;;2.7;;
78079;SDS011;67298;51.322;5.958;2023-06-19T16:27:08;4.8;;;2.8;;
78079;SDS011;67298;51.322;5.958;2023-06-19T16:31:47;5.5;;;3.0;;
78079;SDS011;67298;51.322;5.958;2023-06-19T16:36:26;5.0;;;3.2;;
78079;SDS011;67298;51.322;5.958;2023-06-19T16:41:06;5.2;;;2.9;;
78079;SDS011;67298;51.322;5.958;2023-06-19T16:45:45;4.5;;;2.8;;
78079;SDS011;67298;51.322;5.958;2023-06-19T16:50:25;3.7;;;3.3;;
78079;SDS011;67298;51.322;5.958;2023-06-19T16:55:04;5.0;;;2.8;;
78079;SDS011;67298;51.322;5.958;2023-06-19T16:59:43;2.0;;;1.9;;
78079;SDS011;67298;51.322;5.958;2023-06-19T17:04:23;5.1;;;3.3;;
78079;SDS011;67298;51.322;5.958;2023-06-19T17:09:02;5.8;;;3.5;;
78079;SDS011;67298;51.322;5.958;2023-06-19T17:13:41;5.1;;;3.3;;
78079;SDS011;67298;51.322;5.958;2023-06-19T17:18:21;3.7;;;2.7;;
78079;SDS011;67298;51.322;5.958;2023-06-19T17:23:00;5.4;;;3.3;;
78079;SDS011;67298;51.322;5.958;2023-06-19T17:27:40;4.1;;;3.4;;
78079;SDS011;67298;51.322;5.958;2023-06-19T17:32:19;3.5;;;3.2;;
78079;SDS011;67298;51.322;5.958;2023-06-19T17:36:58;3.9;;;3.4;;
78079;SDS011;67298;51.322;5.958;2023-06-19T17:41:38;3.7;;;3.3;;
78079;SDS011;67298;51.322;5.958;2023-06-19T17:46:17;3.8;;;3.4;;
78079;SDS011;67298;51.322;5.958;2023-06-19T17:50:56;3.7;;;3.3;;
78079;SDS011;67298;51.322;5.958;2023-06-19T17:55:36;3.8;;;3.5;;
78079;SDS011;67298;51.322;5.958;2023-06-19T18:00:15;3.3;;;3.0;;
78079;SDS011;67298;51.322;5.958;2023-06-19T18:04:54;6.2;;;3.3;;
78079;SDS011;67298;51.322;5.958;2023-06-19T18:09:34;3.6;;;3.3;;
78079;SDS011;67298;51.322;5.958;2023-06-19T18:14:14;4.1;;;3.6;;
78079;SDS011;67298;51.322;5.958;2023-06-19T18:18:53;4.6;;;3.5;;
78079;SDS011;67298;51.322;5.958;2023-06-19T18:23:32;5.2;;;3.1;;
78079;SDS011;67298;51.322;5.958;2023-06-19T18:28:12;3.9;;;3.5;;
78079;SDS011;67298;51.322;5.958;2023-06-19T18:32:51;5.5;;;3.7;;
78079;SDS011;67298;51.322;5.958;2023-06-19T18:37:31;1.5;;;1.4;;
78079;SDS011;67298;51.322;5.958;2023-06-19T18:42:10;3.5;;;3.2;;
78079;SDS011;67298;51.322;5.958;2023-06-19T18:46:49;5.7;;;4.0;;
78079;SDS011;67298;51.322;5.958;2023-06-19T18:51:29;4.4;;;3.8;;
78079;SDS011;67298;51.322;5.958;2023-06-19T18:56:08;4.4;;;3.8;;
78079;SDS011;67298;51.322;5.958;2023-06-19T19:00:48;4.1;;;3.8;;
78079;SDS011;67298;51.322;5.958;2023-06-19T19:05:27;5.7;;;4.5;;
78079;SDS011;67298;51.322;5.958;2023-06-19T19:10:06;4.5;;;4.1;;
78079;SDS011;67298;51.322;5.958;2023-06-19T19:14:46;5.8;;;4.3;;
78079;SDS011;67298;51.322;5.958;2023-06-19T19:19:25;5.9;;;4.3;;
78079;SDS011;67298;51.322;5.958;2023-06-19T19:24:05;5.2;;;4.3;;
78079;SDS011;67298;51.322;5.958;2023-06-19T19:28:44;5.0;;;4.5;;
78079;SDS011;67298;51.322;5.958;2023-06-19T19:33:23;5.1;;;4.5;;
78079;SDS011;67298;51.322;5.958;2023-06-19T19:38:03;3.9;;;3.6;;
78079;SDS011;67298;51.322;5.958;2023-06-19T19:42:42;5.3;;;4.8;;
78079;SDS011;67298;51.322;5.958;2023-06-19T19:47:22;6.8;;;5.9;;
78079;SDS011;67298;51.322;5.958;2023-06-19T19:52:01;7.9;;;6.3;;
78079;SDS011;67298;51.322;5.958;2023-06-19T19:56:41;5.9;;;5.3;;
78079;SDS011;67298;51.322;5.958;2023-06-19T20:01:20;5.1;;;4.6;;
78079;SDS011;67298;51.322;5.958;2023-06-19T20:05:59;7.0;;;5.8;;
78079;SDS011;67298;51.322;5.958;2023-06-19T20:10:39;7.1;;;5.0;;
78079;SDS011;67298;51.322;5.958;2023-06-19T20:15:18;7.6;;;5.6;;
78079;SDS011;67298;51.322;5.958;2023-06-19T20:19:58;6.8;;;5.6;;
78079;SDS011;67298;51.322;5.958;2023-06-19T20:24:38;5.4;;;4.9;;
78079;SDS011;67298;51.322;5.958;2023-06-19T20:29:17;5.7;;;5.1;;
78079;SDS011;67298;51.322;5.958;2023-06-19T20:33:56;5.7;;;5.2;;
78079;SDS011;67298;51.322;5.958;2023-06-19T20:38:36;3.6;;;3.3;;
78079;SDS011;67298;51.322;5.958;2023-06-19T20:43:15;5.5;;;4.9;;
78079;SDS011;67298;51.322;5.958;2023-06-19T20:47:54;6.6;;;4.4;;
78079;SDS011;67298;51.322;5.958;2023-06-19T20:52:34;8.6;;;5.3;;
78079;SDS011;67298;51.322;5.958;2023-06-19T20:57:13;6.8;;;5.0;;
78079;SDS011;67298;51.322;5.958;2023-06-19T21:01:53;6.5;;;5.8;;
78079;SDS011;67298;51.322;5.958;2023-06-19T21:06:32;6.2;;;5.3;;
78079;SDS011;67298;51.322;5.958;2023-06-19T21:11:11;6.0;;;5.5;;
78079;SDS011;67298;51.322;5.958;2023-06-19T21:15:51;2.8;;;2.0;;
78079;SDS011;67298;51.322;5.958;2023-06-19T21:20:30;7.1;;;5.1;;
78079;SDS011;67298;51.322;5.958;2023-06-19T21:25:10;5.3;;;4.9;;
78079;SDS011;67298;51.322;5.958;2023-06-19T21:29:49;6.0;;;5.4;;
78079;SDS011;67298;51.322;5.958;2023-06-19T21:34:28;8.6;;;5.8;;
78079;SDS011;67298;51.322;5.958;2023-06-19T21:39:08;5.6;;;5.0;;
78079;SDS011;67298;51.322;5.958;2023-06-19T21:43:47;7.8;;;6.0;;
78079;SDS011;67298;51.322;5.958;2023-06-19T21:48:27;7.9;;;6.2;;
78079;SDS011;67298;51.322;5.958;2023-06-19T21:53:06;7.5;;;6.3;;
78079;SDS011;67298;51.322;5.958;2023-06-19T21:57:45;6.6;;;5.6;;
78079;SDS011;67298;51.322;5.958;2023-06-19T22:02:25;7.2;;;6.0;;
78079;SDS011;67298;51.322;5.958;2023-06-19T22:07:04;7.3;;;6.1;;
78079;SDS011;67298;51.322;5.958;2023-06-19T22:11:44;6.9;;;6.1;;
78079;SDS011;67298;51.322;5.958;2023-06-19T22:16:23;4.9;;;4.5;;
78079;SDS011;67298;51.322;5.958;2023-06-19T22:21:03;6.7;;;5.7;;
78079;SDS011;67298;51.322;5.958;2023-06-19T22:25:42;5.7;;;5.2;;
78079;SDS011;67298;51.322;5.958;2023-06-19T22:30:21;6.6;;;5.9;;
78079;SDS011;67298;51.322;5.958;2023-06-19T22:35:01;8.8;;;5.7;;
78079;SDS011;67298;51.322;5.958;2023-06-19T22:39:40;7.4;;;4.5;;
78079;SDS011;67298;51.322;5.958;2023-06-19T22:44:20;6.7;;;6.0;;
78079;SDS011;67298;51.322;5.958;2023-06-19T22:48:59;7.5;;;5.5;;
78079;SDS011;67298;51.322;5.958;2023-06-19T22:53:38;8.0;;;6.2;;
78079;SDS011;67298;51.322;5.958;2023-06-19T22:58:18;8.3;;;5.9;;
78079;SDS011;67298;51.322;5.958;2023-06-19T23:02:57;7.7;;;5.2;;
78079;SDS011;67298;51.322;5.958;2023-06-19T23:07:37;7.4;;;6.0;;
78079;SDS011;67298;51.322;5.958;2023-06-19T23:12:16;8.0;;;5.5;;
78079;SDS011;67298;51.322;5.958;2023-06-19T23:16:56;5.5;;;5.1;;
78079;SDS011;67298;51.322;5.958;2023-06-19T23:21:35;8.7;;;6.0;;
78079;SDS011;67298;51.322;5.958;2023-06-19T23:26:14;15.2;;;5.8;;
78079;SDS011;67298;51.322;5.958;2023-06-19T23:30:54;7.7;;;6.1;;
78079;SDS011;67298;51.322;5.958;2023-06-19T23:35:33;8.7;;;6.6;;
78079;SDS011;67298;51.322;5.958;2023-06-19T23:40:12;6.3;;;5.7;;
78079;SDS011;67298;51.322;5.958;2023-06-19T23:44:52;7.2;;;6.2;;
78079;SDS011;67298;51.322;5.958;2023-06-19T23:49:31;7.9;;;6.2;;
78079;SDS011;67298;51.322;5.958;2023-06-19T23:54:11;23.0;;;5.1;;
78079;SDS011;67298;51.322;5.958;2023-06-19T23:58:50;8.2;;;6.1;;
